sensor_id;sensor_type;location;lat;lon;timestamp;temperature;humidity
21019;DHT22;10667;51.056;3.732;2024-03-29T00:00:39;11.20;99.90
21019;DHT22;10667;51.056;3.732;2024-03-29T00:03:06;11.20;99.90
21019;DHT22;10667;51.056;3.732;2024-03-29T00:05:35;11.10;99.90
21019;DHT22;10667;51.056;3.732;2024-03-29T00:08:01;11.20;99.90
21019;DHT22;10667;51.056;3.732;2024-03-29T00:10:27;11.20;99.90
21019;DHT22;10667;51.056;3.732;2024-03-29T00:12:52;11.20;99.90
21019;DHT22;10667;51.056;3.732;2024-03-29T00:15:18;11.20;99.90
21019;DHT22;10667;51.056;3.732;2024-03-29T00:17:43;11.30;99.90
21019;DHT22;10667;51.056;3.732;2024-03-29T00:20:09;11.20;99.90
21019;DHT22;10667;51.056;3.732;2024-03-29T00:22:35;11.30;99.90
21019;DHT22;10667;51.056;3.732;2024-03-29T00:25:01;11.30;99.90
21019;DHT22;10667;51.056;3.732;2024-03-29T00:27:27;11.30;99.90
21019;DHT22;10667;51.056;3.732;2024-03-29T00:29:54;11.30;99.90
21019;DHT22;10667;51.056;3.732;2024-03-29T00:32:23;11.30;99.90
21019;DHT22;10667;51.056;3.732;2024-03-29T00:34:50;11.30;99.90
21019;DHT22;10667;51.056;3.732;2024-03-29T00:37:16;11.30;99.90
21019;DHT22;10667;51.056;3.732;2024-03-29T00:39:42;11.30;99.90
21019;DHT22;10667;51.056;3.732;2024-03-29T00:42:08;11.30;99.90
21019;DHT22;10667;51.056;3.732;2024-03-29T00:44:35;11.40;99.90
21019;DHT22;10667;51.056;3.732;2024-03-29T00:47:02;11.30;99.90
21019;DHT22;10667;51.056;3.732;2024-03-29T00:49:28;11.40;99.90
21019;DHT22;10667;51.056;3.732;2024-03-29T00:51:55;11.40;99.90
21019;DHT22;10667;51.056;3.732;2024-03-29T00:54:20;11.40;99.90
21019;DHT22;10667;51.056;3.732;2024-03-29T00:56:46;11.50;99.90
21019;DHT22;10667;51.056;3.732;2024-03-29T00:59:12;11.40;99.90
21019;DHT22;10667;51.056;3.732;2024-03-29T01:01:37;11.40;99.90
21019;DHT22;10667;51.056;3.732;2024-03-29T01:04:04;11.40;99.90
21019;DHT22;10667;51.056;3.732;2024-03-29T01:06:29;11.40;99.90
21019;DHT22;10667;51.056;3.732;2024-03-29T01:08:55;11.40;99.90
21019;DHT22;10667;51.056;3.732;2024-03-29T01:11:20;11.50;99.90
21019;DHT22;10667;51.056;3.732;2024-03-29T01:13:46;11.50;99.90
21019;DHT22;10667;51.056;3.732;2024-03-29T01:16:12;11.50;99.90
21019;DHT22;10667;51.056;3.732;2024-03-29T01:18:37;11.50;99.90
21019;DHT22;10667;51.056;3.732;2024-03-29T01:21:04;11.40;99.90
21019;DHT22;10667;51.056;3.732;2024-03-29T01:23:30;11.30;99.90
21019;DHT22;10667;51.056;3.732;2024-03-29T01:25:55;11.40;99.90
21019;DHT22;10667;51.056;3.732;2024-03-29T01:28:21;11.50;99.90
21019;DHT22;10667;51.056;3.732;2024-03-29T01:30:53;11.50;99.90
21019;DHT22;10667;51.056;3.732;2024-03-29T01:33:20;11.50;99.90
21019;DHT22;10667;51.056;3.732;2024-03-29T01:35:46;11.40;99.90
21019;DHT22;10667;51.056;3.732;2024-03-29T01:38:12;11.40;99.90
21019;DHT22;10667;51.056;3.732;2024-03-29T01:40:38;11.40;99.90
21019;DHT22;10667;51.056;3.732;2024-03-29T01:43:03;11.40;99.90
21019;DHT22;10667;51.056;3.732;2024-03-29T01:45:30;11.30;99.90
21019;DHT22;10667;51.056;3.732;2024-03-29T01:47:56;11.20;99.90
21019;DHT22;10667;51.056;3.732;2024-03-29T01:50:22;11.30;99.90
21019;DHT22;10667;51.056;3.732;2024-03-29T01:52:48;11.20;99.90
21019;DHT22;10667;51.056;3.732;2024-03-29T01:55:15;11.20;99.90
21019;DHT22;10667;51.056;3.732;2024-03-29T01:57:42;11.30;99.90
21019;DHT22;10667;51.056;3.732;2024-03-29T02:00:08;11.30;99.90
21019;DHT22;10667;51.056;3.732;2024-03-29T02:02:36;11.30;99.90
21019;DHT22;10667;51.056;3.732;2024-03-29T02:05:02;11.30;99.90
21019;DHT22;10667;51.056;3.732;2024-03-29T02:07:30;11.30;99.90
21019;DHT22;10667;51.056;3.732;2024-03-29T02:09:55;11.30;99.90
21019;DHT22;10667;51.056;3.732;2024-03-29T02:12:21;11.20;99.90
21019;DHT22;10667;51.056;3.732;2024-03-29T02:14:47;11.20;99.90
21019;DHT22;10667;51.056;3.732;2024-03-29T02:17:12;11.20;99.90
21019;DHT22;10667;51.056;3.732;2024-03-29T02:19:38;11.20;99.90
21019;DHT22;10667;51.056;3.732;2024-03-29T02:22:05;11.10;99.90
21019;DHT22;10667;51.056;3.732;2024-03-29T02:24:33;11.10;99.90
21019;DHT22;10667;51.056;3.732;2024-03-29T02:26:59;11.10;99.90
21019;DHT22;10667;51.056;3.732;2024-03-29T02:29:25;11.20;99.90
21019;DHT22;10667;51.056;3.732;2024-03-29T02:31:51;11.10;99.90
21019;DHT22;10667;51.056;3.732;2024-03-29T02:34:16;11.20;99.90
21019;DHT22;10667;51.056;3.732;2024-03-29T02:36:42;11.20;99.90
21019;DHT22;10667;51.056;3.732;2024-03-29T02:39:09;11.10;99.90
21019;DHT22;10667;51.056;3.732;2024-03-29T02:41:35;11.00;99.90
21019;DHT22;10667;51.056;3.732;2024-03-29T02:44:01;11.00;99.90
21019;DHT22;10667;51.056;3.732;2024-03-29T02:46:27;11.00;99.90
21019;DHT22;10667;51.056;3.732;2024-03-29T02:48:52;11.00;99.90
21019;DHT22;10667;51.056;3.732;2024-03-29T02:51:18;10.90;99.90
21019;DHT22;10667;51.056;3.732;2024-03-29T02:53:44;10.90;99.90
21019;DHT22;10667;51.056;3.732;2024-03-29T02:56:10;10.80;99.90
21019;DHT22;10667;51.056;3.732;2024-03-29T02:58:36;10.80;99.90
21019;DHT22;10667;51.056;3.732;2024-03-29T03:01:08;10.50;99.90
21019;DHT22;10667;51.056;3.732;2024-03-29T03:03:34;10.50;99.90
21019;DHT22;10667;51.056;3.732;2024-03-29T03:06:00;10.50;99.90
21019;DHT22;10667;51.056;3.732;2024-03-29T03:08:25;10.40;99.90
21019;DHT22;10667;51.056;3.732;2024-03-29T03:11:09;10.30;99.90
21019;DHT22;10667;51.056;3.732;2024-03-29T03:13:35;10.30;99.90
21019;DHT22;10667;51.056;3.732;2024-03-29T03:16:01;10.30;99.90
21019;DHT22;10667;51.056;3.732;2024-03-29T03:18:26;10.30;99.90
21019;DHT22;10667;51.056;3.732;2024-03-29T03:20:53;10.20;99.90
21019;DHT22;10667;51.056;3.732;2024-03-29T03:23:19;10.30;99.90
21019;DHT22;10667;51.056;3.732;2024-03-29T03:25:55;10.20;99.90
21019;DHT22;10667;51.056;3.732;2024-03-29T03:28:21;10.20;99.90
21019;DHT22;10667;51.056;3.732;2024-03-29T03:30:48;10.00;99.90
21019;DHT22;10667;51.056;3.732;2024-03-29T03:33:14;10.10;99.90
21019;DHT22;10667;51.056;3.732;2024-03-29T03:35:40;10.10;99.90
21019;DHT22;10667;51.056;3.732;2024-03-29T03:38:06;10.00;99.90
21019;DHT22;10667;51.056;3.732;2024-03-29T03:40:33;10.00;99.90
21019;DHT22;10667;51.056;3.732;2024-03-29T03:42:58;10.00;99.90
21019;DHT22;10667;51.056;3.732;2024-03-29T03:45:24;10.00;99.90
21019;DHT22;10667;51.056;3.732;2024-03-29T03:47:49;10.00;99.90
21019;DHT22;10667;51.056;3.732;2024-03-29T03:50:15;10.10;99.90
21019;DHT22;10667;51.056;3.732;2024-03-29T03:52:41;10.10;99.90
21019;DHT22;10667;51.056;3.732;2024-03-29T03:55:07;10.00;99.90
21019;DHT22;10667;51.056;3.732;2024-03-29T03:57:32;9.90;99.90
21019;DHT22;10667;51.056;3.732;2024-03-29T03:59:59;10.00;99.90
21019;DHT22;10667;51.056;3.732;2024-03-29T04:02:25;9.90;99.90
21019;DHT22;10667;51.056;3.732;2024-03-29T04:04:51;9.90;99.90
21019;DHT22;10667;51.056;3.732;2024-03-29T04:07:16;9.90;99.90
21019;DHT22;10667;51.056;3.732;2024-03-29T04:09:42;10.00;99.90
21019;DHT22;10667;51.056;3.732;2024-03-29T04:12:07;9.90;99.90
21019;DHT22;10667;51.056;3.732;2024-03-29T04:14:33;9.80;99.90
21019;DHT22;10667;51.056;3.732;2024-03-29T04:16:59;9.70;99.90
21019;DHT22;10667;51.056;3.732;2024-03-29T04:19:24;9.70;99.90
21019;DHT22;10667;51.056;3.732;2024-03-29T04:21:52;9.70;99.90
21019;DHT22;10667;51.056;3.732;2024-03-29T04:24:18;9.80;99.90
21019;DHT22;10667;51.056;3.732;2024-03-29T04:26:43;9.70;99.90
21019;DHT22;10667;51.056;3.732;2024-03-29T04:29:10;9.70;99.90
21019;DHT22;10667;51.056;3.732;2024-03-29T04:31:36;9.70;99.90
21019;DHT22;10667;51.056;3.732;2024-03-29T04:34:01;9.70;99.90
21019;DHT22;10667;51.056;3.732;2024-03-29T04:36:27;9.80;99.90
21019;DHT22;10667;51.056;3.732;2024-03-29T04:38:52;9.80;99.90
21019;DHT22;10667;51.056;3.732;2024-03-29T04:41:19;9.90;99.90
21019;DHT22;10667;51.056;3.732;2024-03-29T04:43:44;9.80;99.90
21019;DHT22;10667;51.056;3.732;2024-03-29T04:46:12;9.70;99.90
21019;DHT22;10667;51.056;3.732;2024-03-29T04:48:38;9.70;99.90
21019;DHT22;10667;51.056;3.732;2024-03-29T04:51:04;9.80;99.90
21019;DHT22;10667;51.056;3.732;2024-03-29T04:53:30;9.80;99.90
21019;DHT22;10667;51.056;3.732;2024-03-29T04:55:57;9.80;99.90
21019;DHT22;10667;51.056;3.732;2024-03-29T04:58:26;9.70;99.90
21019;DHT22;10667;51.056;3.732;2024-03-29T05:00:52;9.70;99.90
21019;DHT22;10667;51.056;3.732;2024-03-29T05:03:18;9.70;99.90
21019;DHT22;10667;51.056;3.732;2024-03-29T05:05:45;9.80;99.90
21019;DHT22;10667;51.056;3.732;2024-03-29T05:08:11;9.80;99.90
21019;DHT22;10667;51.056;3.732;2024-03-29T05:10:37;9.80;99.90
21019;DHT22;10667;51.056;3.732;2024-03-29T05:13:03;9.80;99.90
21019;DHT22;10667;51.056;3.732;2024-03-29T05:15:29;9.60;99.90
21019;DHT22;10667;51.056;3.732;2024-03-29T05:17:54;9.60;99.90
21019;DHT22;10667;51.056;3.732;2024-03-29T05:20:20;9.70;99.90
21019;DHT22;10667;51.056;3.732;2024-03-29T05:22:46;9.70;99.90
21019;DHT22;10667;51.056;3.732;2024-03-29T05:25:11;9.80;99.90
21019;DHT22;10667;51.056;3.732;2024-03-29T05:27:37;9.80;99.90
21019;DHT22;10667;51.056;3.732;2024-03-29T05:30:03;9.80;99.90
21019;DHT22;10667;51.056;3.732;2024-03-29T05:32:30;9.70;99.90
21019;DHT22;10667;51.056;3.732;2024-03-29T05:34:56;9.80;99.90
21019;DHT22;10667;51.056;3.732;2024-03-29T05:37:22;9.70;99.90
21019;DHT22;10667;51.056;3.732;2024-03-29T05:39:50;9.70;99.90
21019;DHT22;10667;51.056;3.732;2024-03-29T05:42:27;9.70;99.90
21019;DHT22;10667;51.056;3.732;2024-03-29T05:44:53;9.80;99.90
21019;DHT22;10667;51.056;3.732;2024-03-29T05:47:19;9.80;99.90
21019;DHT22;10667;51.056;3.732;2024-03-29T05:49:45;9.70;99.90
21019;DHT22;10667;51.056;3.732;2024-03-29T05:52:11;9.60;99.90
21019;DHT22;10667;51.056;3.732;2024-03-29T05:54:43;9.50;99.90
21019;DHT22;10667;51.056;3.732;2024-03-29T05:57:09;9.60;99.90
21019;DHT22;10667;51.056;3.732;2024-03-29T05:59:35;9.60;99.90
21019;DHT22;10667;51.056;3.732;2024-03-29T06:02:01;9.60;99.90
21019;DHT22;10667;51.056;3.732;2024-03-29T06:04:27;9.60;99.90
21019;DHT22;10667;51.056;3.732;2024-03-29T06:06:59;9.50;99.90
21019;DHT22;10667;51.056;3.732;2024-03-29T06:09:25;9.50;99.90
21019;DHT22;10667;51.056;3.732;2024-03-29T06:11:51;9.40;99.90
21019;DHT22;10667;51.056;3.732;2024-03-29T06:14:17;9.40;99.90
21019;DHT22;10667;51.056;3.732;2024-03-29T06:17:01;9.50;99.90
21019;DHT22;10667;51.056;3.732;2024-03-29T06:19:45;9.50;99.90
21019;DHT22;10667;51.056;3.732;2024-03-29T06:22:10;9.50;99.90
21019;DHT22;10667;51.056;3.732;2024-03-29T06:24:36;9.50;99.90
21019;DHT22;10667;51.056;3.732;2024-03-29T06:27:04;9.40;99.90
21019;DHT22;10667;51.056;3.732;2024-03-29T06:29:30;9.30;99.90
21019;DHT22;10667;51.056;3.732;2024-03-29T06:31:55;9.30;99.90
21019;DHT22;10667;51.056;3.732;2024-03-29T06:34:21;9.40;99.90
21019;DHT22;10667;51.056;3.732;2024-03-29T06:36:47;9.60;99.90
21019;DHT22;10667;51.056;3.732;2024-03-29T06:39:12;9.60;99.90
21019;DHT22;10667;51.056;3.732;2024-03-29T06:41:38;9.70;99.90
21019;DHT22;10667;51.056;3.732;2024-03-29T06:44:04;9.70;99.90
21019;DHT22;10667;51.056;3.732;2024-03-29T06:46:29;9.70;99.90
21019;DHT22;10667;51.056;3.732;2024-03-29T06:48:55;9.70;99.90
21019;DHT22;10667;51.056;3.732;2024-03-29T06:51:20;9.70;99.90
21019;DHT22;10667;51.056;3.732;2024-03-29T06:53:46;9.70;99.90
21019;DHT22;10667;51.056;3.732;2024-03-29T06:56:12;9.80;99.90
21019;DHT22;10667;51.056;3.732;2024-03-29T06:58:37;9.80;99.90
21019;DHT22;10667;51.056;3.732;2024-03-29T07:01:03;9.90;99.90
21019;DHT22;10667;51.056;3.732;2024-03-29T07:03:29;9.90;99.90
21019;DHT22;10667;51.056;3.732;2024-03-29T07:05:54;9.90;99.90
21019;DHT22;10667;51.056;3.732;2024-03-29T07:08:20;9.90;99.90
21019;DHT22;10667;51.056;3.732;2024-03-29T07:10:46;10.00;99.90
21019;DHT22;10667;51.056;3.732;2024-03-29T07:13:11;10.00;99.90
21019;DHT22;10667;51.056;3.732;2024-03-29T07:15:37;10.20;99.90
21019;DHT22;10667;51.056;3.732;2024-03-29T07:18:04;10.20;99.90
21019;DHT22;10667;51.056;3.732;2024-03-29T07:20:29;10.20;99.90
21019;DHT22;10667;51.056;3.732;2024-03-29T07:22:55;10.10;99.90
21019;DHT22;10667;51.056;3.732;2024-03-29T07:25:21;10.20;99.90
21019;DHT22;10667;51.056;3.732;2024-03-29T07:27:47;10.10;99.90
21019;DHT22;10667;51.056;3.732;2024-03-29T07:30:13;10.10;99.90
21019;DHT22;10667;51.056;3.732;2024-03-29T07:32:39;10.10;99.90
21019;DHT22;10667;51.056;3.732;2024-03-29T07:35:05;10.10;99.90
21019;DHT22;10667;51.056;3.732;2024-03-29T07:37:31;10.20;99.90
21019;DHT22;10667;51.056;3.732;2024-03-29T07:39:56;10.20;99.90
21019;DHT22;10667;51.056;3.732;2024-03-29T07:42:22;10.30;99.90
21019;DHT22;10667;51.056;3.732;2024-03-29T07:44:48;10.50;99.90
21019;DHT22;10667;51.056;3.732;2024-03-29T07:47:14;10.50;99.90
21019;DHT22;10667;51.056;3.732;2024-03-29T07:49:40;10.60;99.90
21019;DHT22;10667;51.056;3.732;2024-03-29T07:52:06;10.60;99.90
21019;DHT22;10667;51.056;3.732;2024-03-29T07:54:34;10.70;99.90
21019;DHT22;10667;51.056;3.732;2024-03-29T07:56:59;10.80;99.90
21019;DHT22;10667;51.056;3.732;2024-03-29T07:59:26;10.80;99.90
21019;DHT22;10667;51.056;3.732;2024-03-29T08:01:52;10.90;99.90
21019;DHT22;10667;51.056;3.732;2024-03-29T08:04:20;10.90;99.90
21019;DHT22;10667;51.056;3.732;2024-03-29T08:06:45;11.00;99.90
21019;DHT22;10667;51.056;3.732;2024-03-29T08:09:11;10.80;99.90
21019;DHT22;10667;51.056;3.732;2024-03-29T08:11:39;10.70;99.90
21019;DHT22;10667;51.056;3.732;2024-03-29T08:14:05;10.80;99.90
21019;DHT22;10667;51.056;3.732;2024-03-29T08:16:31;11.00;99.90
21019;DHT22;10667;51.056;3.732;2024-03-29T08:18:57;11.00;99.90
21019;DHT22;10667;51.056;3.732;2024-03-29T08:21:23;11.00;99.90
21019;DHT22;10667;51.056;3.732;2024-03-29T08:23:52;11.00;99.90
21019;DHT22;10667;51.056;3.732;2024-03-29T08:26:21;11.00;99.90
21019;DHT22;10667;51.056;3.732;2024-03-29T08:28:46;11.10;99.90
21019;DHT22;10667;51.056;3.732;2024-03-29T08:31:12;11.20;99.90
21019;DHT22;10667;51.056;3.732;2024-03-29T08:33:38;11.20;99.90
21019;DHT22;10667;51.056;3.732;2024-03-29T08:36:07;11.30;99.90
21019;DHT22;10667;51.056;3.732;2024-03-29T08:38:34;11.30;99.90
21019;DHT22;10667;51.056;3.732;2024-03-29T08:41:00;11.30;99.90
21019;DHT22;10667;51.056;3.732;2024-03-29T08:43:26;11.20;99.90
21019;DHT22;10667;51.056;3.732;2024-03-29T08:45:52;11.30;99.90
21019;DHT22;10667;51.056;3.732;2024-03-29T08:48:17;11.30;99.90
21019;DHT22;10667;51.056;3.732;2024-03-29T08:50:43;11.20;99.90
21019;DHT22;10667;51.056;3.732;2024-03-29T08:53:09;11.30;99.90
21019;DHT22;10667;51.056;3.732;2024-03-29T08:55:35;11.30;99.90
21019;DHT22;10667;51.056;3.732;2024-03-29T08:58:02;11.50;99.90
21019;DHT22;10667;51.056;3.732;2024-03-29T09:00:29;11.50;99.90
21019;DHT22;10667;51.056;3.732;2024-03-29T09:02:55;11.50;99.90
21019;DHT22;10667;51.056;3.732;2024-03-29T09:05:25;11.50;99.90
21019;DHT22;10667;51.056;3.732;2024-03-29T09:07:53;11.60;99.90
21019;DHT22;10667;51.056;3.732;2024-03-29T09:10:18;11.60;99.90
21019;DHT22;10667;51.056;3.732;2024-03-29T09:12:44;11.70;99.90
21019;DHT22;10667;51.056;3.732;2024-03-29T09:15:10;11.60;99.90
21019;DHT22;10667;51.056;3.732;2024-03-29T09:17:39;11.60;99.90
21019;DHT22;10667;51.056;3.732;2024-03-29T09:20:06;11.60;99.90
21019;DHT22;10667;51.056;3.732;2024-03-29T09:22:32;11.40;99.90
21019;DHT22;10667;51.056;3.732;2024-03-29T09:24:57;11.40;99.90
21019;DHT22;10667;51.056;3.732;2024-03-29T09:27:23;11.40;99.90
21019;DHT22;10667;51.056;3.732;2024-03-29T09:29:49;11.60;99.90
21019;DHT22;10667;51.056;3.732;2024-03-29T09:32:15;11.60;99.90
21019;DHT22;10667;51.056;3.732;2024-03-29T09:34:43;11.70;99.90
21019;DHT22;10667;51.056;3.732;2024-03-29T09:37:09;11.90;99.90
21019;DHT22;10667;51.056;3.732;2024-03-29T09:39:35;11.90;99.90
21019;DHT22;10667;51.056;3.732;2024-03-29T09:42:02;11.90;99.90
21019;DHT22;10667;51.056;3.732;2024-03-29T09:44:34;11.90;99.90
21019;DHT22;10667;51.056;3.732;2024-03-29T09:47:04;12.00;99.90
21019;DHT22;10667;51.056;3.732;2024-03-29T09:49:32;12.10;99.90
21019;DHT22;10667;51.056;3.732;2024-03-29T09:51:59;12.20;99.90
21019;DHT22;10667;51.056;3.732;2024-03-29T09:54:28;12.10;99.90
21019;DHT22;10667;51.056;3.732;2024-03-29T09:56:58;12.10;99.90
21019;DHT22;10667;51.056;3.732;2024-03-29T09:59:24;12.30;99.90
21019;DHT22;10667;51.056;3.732;2024-03-29T10:01:54;12.40;99.90
21019;DHT22;10667;51.056;3.732;2024-03-29T10:04:21;12.30;99.90
21019;DHT22;10667;51.056;3.732;2024-03-29T10:06:49;12.30;99.90
21019;DHT22;10667;51.056;3.732;2024-03-29T10:09:17;12.30;99.90
21019;DHT22;10667;51.056;3.732;2024-03-29T10:11:44;12.20;99.90
21019;DHT22;10667;51.056;3.732;2024-03-29T10:14:10;12.30;99.90
21019;DHT22;10667;51.056;3.732;2024-03-29T10:16:36;12.50;99.90
21019;DHT22;10667;51.056;3.732;2024-03-29T10:19:01;12.50;99.90
21019;DHT22;10667;51.056;3.732;2024-03-29T10:21:27;12.60;99.90
21019;DHT22;10667;51.056;3.732;2024-03-29T10:23:53;12.70;99.90
21019;DHT22;10667;51.056;3.732;2024-03-29T10:26:19;12.70;99.90
21019;DHT22;10667;51.056;3.732;2024-03-29T10:28:46;12.70;99.90
21019;DHT22;10667;51.056;3.732;2024-03-29T10:31:12;12.60;99.90
21019;DHT22;10667;51.056;3.732;2024-03-29T10:33:41;12.60;99.90
21019;DHT22;10667;51.056;3.732;2024-03-29T10:36:07;12.70;99.90
21019;DHT22;10667;51.056;3.732;2024-03-29T10:38:35;12.70;99.90
21019;DHT22;10667;51.056;3.732;2024-03-29T10:41:02;12.80;99.90
21019;DHT22;10667;51.056;3.732;2024-03-29T10:43:29;12.90;99.90
21019;DHT22;10667;51.056;3.732;2024-03-29T10:45:56;13.00;99.90
21019;DHT22;10667;51.056;3.732;2024-03-29T10:48:28;13.00;99.90
21019;DHT22;10667;51.056;3.732;2024-03-29T10:50:58;13.10;99.90
21019;DHT22;10667;51.056;3.732;2024-03-29T10:53:27;13.20;99.90
21019;DHT22;10667;51.056;3.732;2024-03-29T10:55:59;13.30;99.90
21019;DHT22;10667;51.056;3.732;2024-03-29T10:58:30;13.40;99.90
21019;DHT22;10667;51.056;3.732;2024-03-29T11:00:57;13.60;99.90
21019;DHT22;10667;51.056;3.732;2024-03-29T11:03:50;13.50;99.90
21019;DHT22;10667;51.056;3.732;2024-03-29T11:06:18;13.50;99.90
21019;DHT22;10667;51.056;3.732;2024-03-29T11:08:50;13.70;99.90
21019;DHT22;10667;51.056;3.732;2024-03-29T11:11:18;13.80;99.90
21019;DHT22;10667;51.056;3.732;2024-03-29T11:13:53;13.80;99.90
21019;DHT22;10667;51.056;3.732;2024-03-29T11:16:23;13.80;99.90
21019;DHT22;10667;51.056;3.732;2024-03-29T11:18:50;13.90;99.90
21019;DHT22;10667;51.056;3.732;2024-03-29T11:21:17;13.80;99.90
21019;DHT22;10667;51.056;3.732;2024-03-29T11:23:50;13.60;99.90
21019;DHT22;10667;51.056;3.732;2024-03-29T11:26:17;13.60;99.90
21019;DHT22;10667;51.056;3.732;2024-03-29T11:28:49;13.70;99.90
21019;DHT22;10667;51.056;3.732;2024-03-29T11:31:15;13.60;99.90
21019;DHT22;10667;51.056;3.732;2024-03-29T11:36:23;13.60;99.90
21019;DHT22;10667;51.056;3.732;2024-03-29T11:38:51;13.70;99.90
21019;DHT22;10667;51.056;3.732;2024-03-29T11:41:19;13.80;99.90
21019;DHT22;10667;51.056;3.732;2024-03-29T11:43:47;13.80;99.90
21019;DHT22;10667;51.056;3.732;2024-03-29T11:46:14;14.00;99.90
21019;DHT22;10667;51.056;3.732;2024-03-29T11:48:41;13.80;99.90
21019;DHT22;10667;51.056;3.732;2024-03-29T11:51:12;14.00;99.90
21019;DHT22;10667;51.056;3.732;2024-03-29T11:53:40;14.10;99.90
21019;DHT22;10667;51.056;3.732;2024-03-29T11:56:06;14.20;99.90
21019;DHT22;10667;51.056;3.732;2024-03-29T11:58:33;14.30;99.90
21019;DHT22;10667;51.056;3.732;2024-03-29T12:01:00;14.40;99.90
21019;DHT22;10667;51.056;3.732;2024-03-29T12:03:29;14.50;99.90
21019;DHT22;10667;51.056;3.732;2024-03-29T12:05:56;14.50;99.90
21019;DHT22;10667;51.056;3.732;2024-03-29T12:08:30;14.50;99.90
21019;DHT22;10667;51.056;3.732;2024-03-29T12:10:58;14.40;99.90
21019;DHT22;10667;51.056;3.732;2024-03-29T12:13:24;14.40;99.90
21019;DHT22;10667;51.056;3.732;2024-03-29T12:15:50;14.40;99.90
21019;DHT22;10667;51.056;3.732;2024-03-29T12:18:15;14.30;99.90
21019;DHT22;10667;51.056;3.732;2024-03-29T12:20:45;14.30;99.90
21019;DHT22;10667;51.056;3.732;2024-03-29T12:23:16;14.40;99.90
21019;DHT22;10667;51.056;3.732;2024-03-29T12:25:42;14.60;99.90
21019;DHT22;10667;51.056;3.732;2024-03-29T12:28:09;14.80;99.90
21019;DHT22;10667;51.056;3.732;2024-03-29T12:30:35;14.70;99.90
21019;DHT22;10667;51.056;3.732;2024-03-29T12:33:09;14.60;99.90
21019;DHT22;10667;51.056;3.732;2024-03-29T12:35:36;14.70;99.90
21019;DHT22;10667;51.056;3.732;2024-03-29T12:38:04;14.70;99.90
21019;DHT22;10667;51.056;3.732;2024-03-29T12:40:32;14.80;99.90
21019;DHT22;10667;51.056;3.732;2024-03-29T12:43:05;14.90;99.90
21019;DHT22;10667;51.056;3.732;2024-03-29T12:45:31;14.70;99.90
21019;DHT22;10667;51.056;3.732;2024-03-29T12:47:57;14.70;99.90
21019;DHT22;10667;51.056;3.732;2024-03-29T12:50:27;14.80;99.90
21019;DHT22;10667;51.056;3.732;2024-03-29T12:52:59;14.80;99.90
21019;DHT22;10667;51.056;3.732;2024-03-29T12:55:26;14.90;99.90
21019;DHT22;10667;51.056;3.732;2024-03-29T12:57:57;15.00;99.90
21019;DHT22;10667;51.056;3.732;2024-03-29T13:00:26;15.20;99.90
21019;DHT22;10667;51.056;3.732;2024-03-29T13:02:51;15.30;99.90
21019;DHT22;10667;51.056;3.732;2024-03-29T13:05:17;15.20;99.90
21019;DHT22;10667;51.056;3.732;2024-03-29T13:07:43;15.10;99.90
21019;DHT22;10667;51.056;3.732;2024-03-29T13:10:09;14.90;99.90
21019;DHT22;10667;51.056;3.732;2024-03-29T13:12:45;14.90;99.90
21019;DHT22;10667;51.056;3.732;2024-03-29T13:15:20;14.80;99.90
21019;DHT22;10667;51.056;3.732;2024-03-29T13:17:47;14.90;99.90
21019;DHT22;10667;51.056;3.732;2024-03-29T13:20:15;14.80;99.90
21019;DHT22;10667;51.056;3.732;2024-03-29T13:22:45;15.00;99.90
21019;DHT22;10667;51.056;3.732;2024-03-29T13:25:15;15.20;99.90
21019;DHT22;10667;51.056;3.732;2024-03-29T13:27:42;15.20;99.90
21019;DHT22;10667;51.056;3.732;2024-03-29T13:30:10;15.30;99.90
21019;DHT22;10667;51.056;3.732;2024-03-29T13:32:36;15.10;99.90
21019;DHT22;10667;51.056;3.732;2024-03-29T13:35:02;15.00;99.90
21019;DHT22;10667;51.056;3.732;2024-03-29T13:37:41;14.90;99.90
21019;DHT22;10667;51.056;3.732;2024-03-29T13:40:09;15.00;99.90
21019;DHT22;10667;51.056;3.732;2024-03-29T13:42:36;15.10;99.90
21019;DHT22;10667;51.056;3.732;2024-03-29T13:45:03;15.20;99.90
21019;DHT22;10667;51.056;3.732;2024-03-29T13:47:29;15.20;99.90
21019;DHT22;10667;51.056;3.732;2024-03-29T13:49:54;15.10;99.90
21019;DHT22;10667;51.056;3.732;2024-03-29T13:52:22;15.20;99.90
21019;DHT22;10667;51.056;3.732;2024-03-29T13:54:47;15.30;99.90
21019;DHT22;10667;51.056;3.732;2024-03-29T13:57:14;15.30;99.90
21019;DHT22;10667;51.056;3.732;2024-03-29T13:59:40;15.20;99.90
21019;DHT22;10667;51.056;3.732;2024-03-29T14:02:09;15.20;99.90
21019;DHT22;10667;51.056;3.732;2024-03-29T14:04:35;15.00;99.90
21019;DHT22;10667;51.056;3.732;2024-03-29T14:07:01;14.90;99.90
21019;DHT22;10667;51.056;3.732;2024-03-29T14:09:28;15.00;99.90
21019;DHT22;10667;51.056;3.732;2024-03-29T14:11:54;14.90;99.90
21019;DHT22;10667;51.056;3.732;2024-03-29T14:14:20;14.80;99.90
21019;DHT22;10667;51.056;3.732;2024-03-29T14:16:46;14.80;99.90
21019;DHT22;10667;51.056;3.732;2024-03-29T14:19:11;14.80;99.90
21019;DHT22;10667;51.056;3.732;2024-03-29T14:21:37;14.90;99.90
21019;DHT22;10667;51.056;3.732;2024-03-29T14:24:02;15.00;99.90
21019;DHT22;10667;51.056;3.732;2024-03-29T14:26:28;15.00;99.90
21019;DHT22;10667;51.056;3.732;2024-03-29T14:28:54;14.80;99.90
21019;DHT22;10667;51.056;3.732;2024-03-29T14:31:20;15.00;99.90
21019;DHT22;10667;51.056;3.732;2024-03-29T14:33:46;14.90;99.90
21019;DHT22;10667;51.056;3.732;2024-03-29T14:36:13;15.00;99.90
21019;DHT22;10667;51.056;3.732;2024-03-29T14:38:38;15.00;99.90
21019;DHT22;10667;51.056;3.732;2024-03-29T14:41:04;14.90;99.90
21019;DHT22;10667;51.056;3.732;2024-03-29T14:43:30;15.10;99.90
21019;DHT22;10667;51.056;3.732;2024-03-29T14:45:55;15.20;99.90
21019;DHT22;10667;51.056;3.732;2024-03-29T14:48:21;15.40;99.90
21019;DHT22;10667;51.056;3.732;2024-03-29T14:50:47;15.40;99.90
21019;DHT22;10667;51.056;3.732;2024-03-29T14:53:13;15.20;99.90
21019;DHT22;10667;51.056;3.732;2024-03-29T14:55:38;15.10;99.90
21019;DHT22;10667;51.056;3.732;2024-03-29T14:58:06;15.20;99.90
21019;DHT22;10667;51.056;3.732;2024-03-29T15:00:32;15.20;99.90
21019;DHT22;10667;51.056;3.732;2024-03-29T15:02:58;15.30;99.90
21019;DHT22;10667;51.056;3.732;2024-03-29T15:05:24;15.50;99.90
21019;DHT22;10667;51.056;3.732;2024-03-29T15:07:51;15.60;99.90
21019;DHT22;10667;51.056;3.732;2024-03-29T15:10:17;15.60;99.90
21019;DHT22;10667;51.056;3.732;2024-03-29T15:12:45;15.70;99.90
21019;DHT22;10667;51.056;3.732;2024-03-29T15:15:12;15.60;99.90
21019;DHT22;10667;51.056;3.732;2024-03-29T15:17:37;15.40;99.90
21019;DHT22;10667;51.056;3.732;2024-03-29T15:20:04;15.30;99.90
21019;DHT22;10667;51.056;3.732;2024-03-29T15:22:31;15.20;99.90
21019;DHT22;10667;51.056;3.732;2024-03-29T15:24:58;15.10;99.90
21019;DHT22;10667;51.056;3.732;2024-03-29T15:27:24;15.20;99.90
21019;DHT22;10667;51.056;3.732;2024-03-29T15:30:14;15.30;99.90
21019;DHT22;10667;51.056;3.732;2024-03-29T15:32:40;15.30;99.90
21019;DHT22;10667;51.056;3.732;2024-03-29T15:35:06;15.30;99.90